Terminal Aerodrome Forecast
Issued by NWS

Home | Current Version | Previous Version | Text Only | Print | Product List | Glossary On
Versions: 1 2 3 4 5 6 7 8 9 10 11 12 13 14 15 16 17 18
000
FTUS46 KSTO 261534 AAA
TAFRDD
TAF AMD
KRDD 261534Z 2616/2712 19009KT P6SM -RA BKN015 OVC040
     FM262200 18012G18KT 6SM -SHRA SCT030 OVC050
     FM270200 18006KT P6SM VCSH OVC012=

USA.gov is the U.S. government's official web portal to all federal, state and local government web resources and services.